This is the latest recevied weather packets stored in our database for station/object KC8YYF. If no packets are shown the sender has not sent any weather packets the latest 10 day(s).
| Time | Temp. | Humidity | Pressure | Rain* | Wind** | Luminosity | Snow |
|---|---|---|---|---|---|---|---|
| 1777233616 | 14.44° C | 72% | 1019.8 hPa | 0 mm | - | 142 W/m² | - |
| 1777233315 | 14.44° C | 72% | 1020.2 hPa | 0 mm | - | 103 W/m² | - |
| 1777233011 | 13.89° C | 73% | 1020.2 hPa | 0 mm | - | 139 W/m² | - |
| 1777232708 | 13.89° C | 75% | 1020.1 hPa | 0 mm | - | 131 W/m² | - |
| 1777232406 | 13.89° C | 75% | 1020.2 hPa | 0 mm | - | 99 W/m² | - |
| 1777232103 | 14.44° C | 73% | 1020.1 hPa | 0 mm | - | 109 W/m² | - |
| 1777231800 | 13.89° C | 76% | 1020.2 hPa | 0 mm | - | 130 W/m² | - |
| 1777231496 | 13.89° C | 76% | 1020.2 hPa | 0 mm | - | 136 W/m² | - |
| 1777231193 | 13.89° C | 76% | 1020.2 hPa | 0 mm | - | 127 W/m² | - |
| 1777230889 | 13.33° C | 77% | 1020.3 hPa | 0 mm | - | 133 W/m² | - |
| 1777230584 | 12.78° C | 77% | 1020.3 hPa | 0 mm | - | 154 W/m² | - |
| 1777230280 | 13.33° C | 77% | 1020.3 hPa | 0 mm | - | 154 W/m² | - |
| 1777229977 | 13.89° C | 77% | 1020.5 hPa | 0 mm | - | 141 W/m² | - |
| 1777229673 | 13.33° C | 77% | 1020.3 hPa | 0 mm | - | 141 W/m² | - |
| 1777229371 | 12.78° C | 78% | 1020.5 hPa | 0 mm | - | 135 W/m² | - |
| 1777229068 | 12.78° C | 77% | 1020.4 hPa | 0 mm | - | 139 W/m² | - |
| 1777228765 | 13.33° C | 77% | 1020.5 hPa | 0 mm | - | 119 W/m² | - |
| 1777228460 | 12.78° C | 79% | 1020.2 hPa | 0 mm | - | 105 W/m² | - |
| 1777228156 | 12.78° C | 79% | 1020.5 hPa | 0 mm | - | 174 W/m² | - |
| 1777227855 | 12.78° C | 80% | 1020.6 hPa | 0 mm | - | 207 W/m² | - |
| 1777227552 | 12.22° C | 80% | 1020.7 hPa | 0 mm | - | 110 W/m² | - |
| 1777227247 | 11.67° C | 81% | 1020.6 hPa | 0 mm | - | 98 W/m² | - |
| 1777226945 | 12.22° C | 81% | 1020.7 hPa | 0 mm | - | 91 W/m² | - |
| 1777226643 | 12.22° C | 81% | 1020.5 hPa | 0 mm | - | 83 W/m² | - |
| 1777226338 | 12.22° C | 82% | 1020.7 hPa | 0 mm | - | 92 W/m² | - |
* Rain latest hour (hover to see other rain measurements)
** Current wind speed in m/s (hover to see current wind gust speed)